createdAt,value
2019-04-21T00:00:37.534Z,7.92
2019-04-21T00:01:47.381Z,7.87
2019-04-21T00:02:50.905Z,7.22
2019-04-21T00:04:03.775Z,7.33
2019-04-21T00:05:26.056Z,7.15
2019-04-21T00:06:31.490Z,7.58
2019-04-21T00:07:36.554Z,7.87
2019-04-21T00:08:52.211Z,7.00
2019-04-21T00:09:52.311Z,6.87
2019-04-21T00:11:02.906Z,7.37
2019-04-21T00:12:02.569Z,7.62
2019-04-21T00:13:07.822Z,7.25
2019-04-21T00:14:14.112Z,7.95
2019-04-21T00:15:19.370Z,7.08
2019-04-21T00:16:17.156Z,7.58
2019-04-21T00:17:24.887Z,7.15
2019-04-21T00:18:54.882Z,7.65
2019-04-21T00:20:09.250Z,7.67
2019-04-21T00:21:14.923Z,8.13
2019-04-21T00:22:23.145Z,8.75
2019-04-21T00:23:37.761Z,9.18
2019-04-21T00:24:41.327Z,7.87
2019-04-21T00:25:47.875Z,8.78
2019-04-21T00:27:04.195Z,8.50
2019-04-21T00:28:16.878Z,8.30
2019-04-21T00:29:25.648Z,8.45
2019-04-21T00:30:30.357Z,8.83
2019-04-21T00:31:28.313Z,8.65
2019-04-21T00:32:32.000Z,8.08
2019-04-21T00:33:34.312Z,8.50
2019-04-21T00:34:40.085Z,7.90
2019-04-21T00:35:54.281Z,8.13
2019-04-21T00:37:03.119Z,8.35
2019-04-21T00:38:17.021Z,7.92
2019-04-21T00:39:36.413Z,7.70
2019-04-21T00:40:36.923Z,8.10
2019-04-21T00:41:43.937Z,8.68
2019-04-21T00:42:48.450Z,8.03
2019-04-21T00:43:50.919Z,7.35
2019-04-21T00:45:06.610Z,7.25
2019-04-21T00:46:03.441Z,7.85
2019-04-21T00:47:24.698Z,7.30
2019-04-21T00:48:30.398Z,7.40
2019-04-21T00:49:27.056Z,7.35
2019-04-21T00:51:05.443Z,8.25
2019-04-21T00:52:29.104Z,7.00
2019-04-21T00:53:35.765Z,6.25
2019-04-21T00:54:51.949Z,7.03
2019-04-21T00:56:01.506Z,7.00
2019-04-21T00:57:08.587Z,6.85
2019-04-21T00:58:23.904Z,7.20
2019-04-21T00:59:13.900Z,7.58
2019-04-21T01:00:22.277Z,7.78
2019-04-21T01:01:24.901Z,8.73
2019-04-21T01:02:39.917Z,9.70
2019-04-21T01:03:46.063Z,11.22
2019-04-21T01:04:50.076Z,10.70
2019-04-21T01:05:57.563Z,11.57
2019-04-21T01:07:02.970Z,12.63
2019-04-21T01:08:09.417Z,12.45
2019-04-21T01:09:14.946Z,12.75
2019-04-21T01:10:21.111Z,14.00
2019-04-21T01:11:31.703Z,13.03
2019-04-21T01:12:41.776Z,12.65
2019-04-21T01:13:54.664Z,12.28
2019-04-21T01:15:04.713Z,12.98
2019-04-21T01:16:12.624Z,11.78
2019-04-21T01:17:12.996Z,10.93
2019-04-21T01:18:20.738Z,10.93
2019-04-21T01:19:25.226Z,8.65
2019-04-21T01:20:17.671Z,8.10
2019-04-21T01:21:20.518Z,8.83
2019-04-21T01:22:26.427Z,9.28
2019-04-21T01:23:32.163Z,8.75
2019-04-21T01:24:43.040Z,9.43
2019-04-21T01:26:00.765Z,9.88
2019-04-21T01:27:02.257Z,9.43
2019-04-21T01:28:18.794Z,9.33
2019-04-21T01:29:22.766Z,10.30
2019-04-21T01:30:36.584Z,11.22
2019-04-21T01:31:36.666Z,10.00
2019-04-21T01:32:53.290Z,10.13
2019-04-21T01:34:01.224Z,10.18
2019-04-21T01:35:02.701Z,10.63
2019-04-21T01:36:12.294Z,11.00
2019-04-21T01:37:30.829Z,12.78
2019-04-21T01:38:32.611Z,12.23
2019-04-21T01:39:41.375Z,14.30
2019-04-21T01:41:03.576Z,13.75
2019-04-21T01:41:52.557Z,13.25
2019-04-21T01:42:56.770Z,13.13
2019-04-21T01:44:01.122Z,13.20
2019-04-21T01:45:11.472Z,13.18
2019-04-21T01:46:14.163Z,13.90
2019-04-21T01:47:20.392Z,13.30
2019-04-21T01:48:33.300Z,12.07
2019-04-21T01:49:33.468Z,12.80
2019-04-21T01:50:46.833Z,11.85
2019-04-21T01:52:08.940Z,13.70
2019-04-21T01:53:11.125Z,13.13
2019-04-21T01:54:37.657Z,12.75
2019-04-21T01:56:00.581Z,12.25
2019-04-21T01:57:12.990Z,10.40
2019-04-21T01:58:19.770Z,10.30
2019-04-21T01:59:31.996Z,10.72
2019-04-21T02:00:45.571Z,10.70
2019-04-21T02:02:02.375Z,9.68
2019-04-21T02:03:09.899Z,10.00
2019-04-21T02:04:15.028Z,12.18
2019-04-21T02:05:28.390Z,12.03
2019-04-21T02:06:33.384Z,11.88
2019-04-21T02:07:40.569Z,12.85
2019-04-21T02:08:44.919Z,12.45
2019-04-21T02:09:51.298Z,12.55
2019-04-21T02:12:08.740Z,13.85
2019-04-21T02:13:11.838Z,13.62
2019-04-21T02:14:22.801Z,13.48
2019-04-21T02:15:29.920Z,12.88
2019-04-21T02:16:34.529Z,14.30
2019-04-21T02:17:45.309Z,13.98
2019-04-21T02:18:49.374Z,14.43
2019-04-21T02:19:56.431Z,13.90
2019-04-21T02:20:55.392Z,13.08
2019-04-21T02:22:11.410Z,13.50
2019-04-21T02:23:34.397Z,14.25
2019-04-21T02:24:40.037Z,13.55
2019-04-21T02:25:38.389Z,13.78
2019-04-21T02:26:44.007Z,14.20
2019-04-21T02:27:54.557Z,14.10
2019-04-21T02:29:01.974Z,14.20
2019-04-21T02:30:12.148Z,13.32
2019-04-21T02:31:41.850Z,13.08
2019-04-21T02:33:50.783Z,11.55
2019-04-21T02:35:03.167Z,11.53
2019-04-21T02:38:11.854Z,11.57
2019-04-21T02:39:31.747Z,10.78
2019-04-21T02:40:35.658Z,10.72
2019-04-21T02:41:35.529Z,10.53
2019-04-21T02:42:46.415Z,10.45
2019-04-21T02:43:50.176Z,10.03
2019-04-21T02:44:56.340Z,10.58
2019-04-21T02:46:54.372Z,10.90
2019-04-21T02:49:45.187Z,9.93
2019-04-21T02:50:33.485Z,9.58
2019-04-21T02:52:43.709Z,9.10
2019-04-21T02:54:11.966Z,10.15
2019-04-21T02:54:58.539Z,9.28
2019-04-21T02:56:11.104Z,9.85
2019-04-21T02:57:18.974Z,10.48
2019-04-21T02:58:34.381Z,9.98
2019-04-21T02:59:49.675Z,9.90
2019-04-21T03:01:31.151Z,10.20
2019-04-21T03:02:46.951Z,9.58
2019-04-21T03:03:52.517Z,9.45
2019-04-21T03:05:32.029Z,9.15
2019-04-21T03:06:54.216Z,9.15
2019-04-21T03:07:55.527Z,10.45
2019-04-21T03:09:01.215Z,9.45
2019-04-21T03:10:26.709Z,9.60
2019-04-21T03:11:12.283Z,10.18
2019-04-21T03:12:20.625Z,10.72
2019-04-21T03:15:54.783Z,10.58
2019-04-21T03:16:40.654Z,10.38
2019-04-21T03:18:06.610Z,11.12
2019-04-21T03:19:06.794Z,11.18
2019-04-21T03:20:16.994Z,11.20
2019-04-21T03:21:25.935Z,12.30
2019-04-21T03:22:26.475Z,13.90
2019-04-21T03:23:46.513Z,14.95
2019-04-21T03:25:52.052Z,20.12
2019-04-21T03:27:12.547Z,23.10
2019-04-21T03:28:11.683Z,28.17
2019-04-21T03:30:52.937Z,28.55
2019-04-21T03:31:49.459Z,26.70
2019-04-21T03:33:08.880Z,28.45
2019-04-21T03:34:21.416Z,25.43
2019-04-21T03:38:16.597Z,17.85
2019-04-21T03:39:18.447Z,17.50
2019-04-21T03:40:22.165Z,18.67
2019-04-21T03:41:40.309Z,17.52
2019-04-21T03:42:42.499Z,16.87
2019-04-21T03:45:58.296Z,14.53
2019-04-21T03:48:20.790Z,11.85
2019-04-21T03:49:32.499Z,12.82
2019-04-21T03:50:42.775Z,12.68
2019-04-21T03:51:42.196Z,13.88
2019-04-21T03:52:47.799Z,12.07
2019-04-21T03:53:46.227Z,12.00
2019-04-21T04:00:02.738Z,10.93
2019-04-21T04:02:36.600Z,10.23
2019-04-21T04:05:23.908Z,9.40
2019-04-21T04:06:27.993Z,10.48
2019-04-21T04:08:31.940Z,10.82
2019-04-21T04:10:11.796Z,9.60
2019-04-21T04:11:30.093Z,9.03
2019-04-21T04:14:46.178Z,8.65
2019-04-21T04:15:56.450Z,10.20
2019-04-21T04:17:06.067Z,10.28
2019-04-21T04:18:04.126Z,10.18
2019-04-21T04:19:34.609Z,10.40
2019-04-21T04:20:30.283Z,9.10
2019-04-21T04:21:47.663Z,9.75
2019-04-21T04:22:41.039Z,10.30
2019-04-21T04:25:00.990Z,9.73
2019-04-21T04:25:59.128Z,9.48
2019-04-21T04:27:07.956Z,10.03
2019-04-21T04:28:23.076Z,9.50
2019-04-21T04:29:20.389Z,10.65
2019-04-21T04:32:41.892Z,9.98
2019-04-21T04:36:30.339Z,9.05
2019-04-21T04:38:22.344Z,9.38
2019-04-21T04:41:06.107Z,10.00
2019-04-21T04:43:28.578Z,9.68
2019-04-21T04:45:38.469Z,10.70
2019-04-21T04:47:49.846Z,11.43
2019-04-21T04:49:06.137Z,10.93
2019-04-21T04:50:24.332Z,10.70
2019-04-21T04:51:17.004Z,11.00
2019-04-21T04:53:32.868Z,11.12
2019-04-21T04:54:49.271Z,12.18
2019-04-21T04:55:46.038Z,13.15
2019-04-21T04:56:56.335Z,12.73
2019-04-21T04:58:04.763Z,12.40
2019-04-21T04:59:23.257Z,12.28
2019-04-21T05:00:21.353Z,12.30
2019-04-21T05:06:42.138Z,9.55
2019-04-21T05:07:44.667Z,8.58
2019-04-21T05:09:54.064Z,7.72
2019-04-21T05:11:08.018Z,6.50
2019-04-21T05:12:05.958Z,7.60
2019-04-21T05:13:21.917Z,6.40
2019-04-21T05:15:42.486Z,6.55
2019-04-21T05:17:48.362Z,6.35
2019-04-21T05:21:16.091Z,5.53
2019-04-21T05:22:20.221Z,5.90
2019-04-21T05:23:15.717Z,6.53
2019-04-21T05:24:16.314Z,6.50
2019-04-21T05:25:19.561Z,5.92
2019-04-21T05:26:29.906Z,5.22
2019-04-21T05:27:38.634Z,4.40
2019-04-21T05:28:44.690Z,4.37
2019-04-21T05:30:09.986Z,4.30
2019-04-21T05:31:32.322Z,3.90
2019-04-21T05:32:58.284Z,5.35
2019-04-21T05:34:14.969Z,4.00
2019-04-21T05:35:18.595Z,3.60
2019-04-21T05:36:44.316Z,3.77
2019-04-21T05:38:03.115Z,4.30
2019-04-21T05:39:11.553Z,5.17
2019-04-21T05:40:22.190Z,3.58
2019-04-21T05:41:26.681Z,6.08
2019-04-21T05:42:40.014Z,4.53
2019-04-21T05:43:48.034Z,3.35
2019-04-21T05:45:05.463Z,6.42
2019-04-21T05:46:10.451Z,7.67
2019-04-21T05:47:20.352Z,4.67
2019-04-21T05:48:46.516Z,7.70
2019-04-21T05:49:55.497Z,10.03
2019-04-21T05:51:03.698Z,7.85
2019-04-21T05:52:08.138Z,7.85
2019-04-21T05:53:29.570Z,5.50
2019-04-21T05:54:52.933Z,4.00
2019-04-21T05:55:45.566Z,5.17
2019-04-21T05:56:52.270Z,5.42
2019-04-21T05:57:57.312Z,3.77
2019-04-21T05:59:03.410Z,3.52
2019-04-21T06:00:10.125Z,4.28
2019-04-21T06:01:23.747Z,3.40
2019-04-21T06:03:40.605Z,3.60
2019-04-21T06:05:02.042Z,3.45
2019-04-21T06:06:00.361Z,3.50
2019-04-21T06:06:56.818Z,3.50
2019-04-21T06:08:10.373Z,3.62
2019-04-21T06:09:08.347Z,2.90
2019-04-21T06:10:22.217Z,3.70
2019-04-21T06:11:28.877Z,3.95
2019-04-21T06:12:36.098Z,3.00
2019-04-21T06:14:48.455Z,3.20
2019-04-21T06:15:56.961Z,3.47
2019-04-21T06:17:03.305Z,3.58
2019-04-21T06:18:11.711Z,3.00
2019-04-21T06:19:23.648Z,2.90
2019-04-21T06:20:32.177Z,2.98
2019-04-21T06:21:35.441Z,2.75
2019-04-21T06:22:39.672Z,3.17
2019-04-21T06:23:45.593Z,2.67
2019-04-21T06:25:23.385Z,3.00
2019-04-21T06:27:21.033Z,2.83
2019-04-21T06:28:20.296Z,2.90
2019-04-21T06:29:23.723Z,2.90
2019-04-21T06:30:33.188Z,3.40
2019-04-21T06:32:02.306Z,3.52
2019-04-21T06:33:50.718Z,7.33
2019-04-21T06:39:05.127Z,7.20
2019-04-21T06:40:16.879Z,6.17
2019-04-21T06:41:21.370Z,3.40
2019-04-21T06:42:22.307Z,3.30
2019-04-21T06:43:33.205Z,4.03
2019-04-21T06:44:33.537Z,3.80
2019-04-21T06:45:39.998Z,4.60
2019-04-21T06:46:44.609Z,4.43
2019-04-21T06:47:57.547Z,3.00
2019-04-21T06:48:59.560Z,2.97
2019-04-21T06:50:07.564Z,2.40
2019-04-21T06:51:20.495Z,2.57
2019-04-21T06:52:41.945Z,2.60
2019-04-21T06:53:29.241Z,3.00
2019-04-21T06:54:33.893Z,2.70
2019-04-21T06:55:41.913Z,2.67
2019-04-21T06:56:47.928Z,2.50
2019-04-21T06:57:53.206Z,2.60
2019-04-21T06:58:58.008Z,2.57
2019-04-21T06:59:59.863Z,2.67
2019-04-21T07:01:15.580Z,3.00
2019-04-21T07:02:33.343Z,2.60
2019-04-21T07:03:29.438Z,2.93
2019-04-21T07:04:36.730Z,2.70
2019-04-21T07:05:42.719Z,3.50
2019-04-21T07:06:52.101Z,2.77
2019-04-21T07:08:11.277Z,2.63
2019-04-21T07:09:10.106Z,2.80
2019-04-21T07:10:22.023Z,3.80
2019-04-21T07:11:14.031Z,3.20
2019-04-21T07:12:15.607Z,3.33
2019-04-21T07:13:23.662Z,2.70
2019-04-21T07:15:43.524Z,3.10
2019-04-21T07:16:51.022Z,14.20
2019-04-21T07:17:53.100Z,16.47
2019-04-21T07:19:05.660Z,16.23
2019-04-21T07:20:10.089Z,7.30
2019-04-21T07:21:08.175Z,4.40
2019-04-21T07:22:17.669Z,7.40
2019-04-21T07:23:26.032Z,4.83
2019-04-21T07:24:31.970Z,3.67
2019-04-21T07:25:40.924Z,3.33
2019-04-21T07:26:45.883Z,3.17
2019-04-21T07:27:56.678Z,3.00
2019-04-21T07:29:02.951Z,2.70
2019-04-21T07:30:04.372Z,3.70
2019-04-21T07:31:11.184Z,3.23
2019-04-21T07:32:14.059Z,3.20
2019-04-21T07:33:41.970Z,3.30
2019-04-21T07:34:33.283Z,3.30
2019-04-21T07:35:51.776Z,3.10
2019-04-21T07:36:50.861Z,3.40
2019-04-21T07:37:49.093Z,3.40
2019-04-21T07:38:58.950Z,2.90
2019-04-21T07:40:01.875Z,3.50
2019-04-21T07:41:06.240Z,3.67
2019-04-21T07:42:09.503Z,3.13
2019-04-21T07:43:16.612Z,3.23
2019-04-21T07:44:17.078Z,3.33
2019-04-21T07:45:27.783Z,3.70
2019-04-21T07:46:31.424Z,3.17
2019-04-21T07:47:53.088Z,3.23
2019-04-21T07:48:58.743Z,3.20
2019-04-21T07:50:08.687Z,3.13
2019-04-21T07:51:45.624Z,3.17
2019-04-21T07:53:01.139Z,3.17
2019-04-21T07:54:26.968Z,2.70
2019-04-21T07:55:20.002Z,3.17
2019-04-21T07:56:05.570Z,3.00
2019-04-21T07:57:16.939Z,3.10
2019-04-21T07:58:31.831Z,3.13
2019-04-21T07:59:52.371Z,3.57
2019-04-21T08:00:51.136Z,2.80
2019-04-21T08:01:53.237Z,2.87
2019-04-21T08:02:54.478Z,2.80
2019-04-21T08:04:03.402Z,3.10
2019-04-21T08:05:13.046Z,2.90
2019-04-21T08:06:25.331Z,3.13
2019-04-21T08:07:24.490Z,3.30
2019-04-21T08:08:29.658Z,2.73
2019-04-21T08:09:37.175Z,2.90
2019-04-21T08:10:39.230Z,2.53
2019-04-21T08:11:44.211Z,2.50
2019-04-21T08:12:54.429Z,2.57
2019-04-21T08:14:01.081Z,2.83
2019-04-21T08:15:16.933Z,3.37
2019-04-21T08:16:18.096Z,2.80
2019-04-21T08:17:24.516Z,2.43
2019-04-21T08:18:33.682Z,2.40
2019-04-21T08:19:35.228Z,3.03
2019-04-21T08:20:46.281Z,3.00
2019-04-21T08:22:59.297Z,2.70
2019-04-21T08:23:59.913Z,3.30
2019-04-21T08:25:08.762Z,3.00
2019-04-21T08:26:15.648Z,2.70
2019-04-21T08:27:27.799Z,2.97
2019-04-21T08:28:36.835Z,2.70
2019-04-21T08:29:40.396Z,3.10
2019-04-21T08:30:43.194Z,2.70
2019-04-21T08:31:57.243Z,2.67
2019-04-21T08:33:00.502Z,3.10
2019-04-21T08:34:09.890Z,2.80
2019-04-21T08:35:48.687Z,2.97
2019-04-21T08:36:25.042Z,2.70
2019-04-21T08:37:18.525Z,2.93
2019-04-21T08:38:30.213Z,2.87
2019-04-21T08:39:42.065Z,2.63
2019-04-21T08:41:49.636Z,3.10
2019-04-21T08:42:55.067Z,3.03
2019-04-21T08:43:56.130Z,2.90
2019-04-21T08:45:10.765Z,2.67
2019-04-21T08:46:22.709Z,2.80
2019-04-21T08:47:30.073Z,2.73
2019-04-21T08:48:29.025Z,2.97
2019-04-21T08:49:36.363Z,3.10
2019-04-21T08:50:44.555Z,2.97
2019-04-21T08:51:54.904Z,3.07
2019-04-21T08:52:56.453Z,3.23
2019-04-21T08:54:13.415Z,3.70
2019-04-21T08:55:20.049Z,2.90
2019-04-21T08:57:06.065Z,3.93
2019-04-21T08:58:29.181Z,3.30
2019-04-21T08:59:55.192Z,3.20
2019-04-21T09:01:33.368Z,3.23
2019-04-21T09:02:47.530Z,2.90
2019-04-21T09:04:01.211Z,3.20
2019-04-21T09:05:04.683Z,3.00
2019-04-21T09:06:14.484Z,2.90
2019-04-21T09:07:29.154Z,2.90
2019-04-21T09:08:27.671Z,3.37
2019-04-21T09:09:39.630Z,2.97
2019-04-21T09:10:39.587Z,3.07
2019-04-21T09:11:47.536Z,2.90
2019-04-21T09:12:52.059Z,3.30
2019-04-21T09:14:01.027Z,3.27
2019-04-21T09:15:01.228Z,3.00
2019-04-21T09:16:11.137Z,2.93
2019-04-21T09:17:15.329Z,3.37
2019-04-21T09:18:18.582Z,3.60
2019-04-21T09:19:48.374Z,3.40
2019-04-21T09:21:50.502Z,3.13
2019-04-21T09:22:54.296Z,3.40
2019-04-21T09:23:56.048Z,3.13
2019-04-21T09:25:01.556Z,2.90
2019-04-21T09:26:14.101Z,3.30
2019-04-21T09:27:14.223Z,3.23
2019-04-21T09:28:19.860Z,2.93
2019-04-21T09:29:21.858Z,3.20
2019-04-21T09:30:19.816Z,2.80
2019-04-21T09:31:31.994Z,3.20
2019-04-21T09:32:34.489Z,2.83
2019-04-21T09:33:45.403Z,2.80
2019-04-21T09:34:47.097Z,2.87
2019-04-21T09:35:58.789Z,3.30
2019-04-21T09:37:12.422Z,3.00
2019-04-21T09:38:17.838Z,2.80
2019-04-21T09:39:18.273Z,2.87
2019-04-21T09:40:27.372Z,2.93
2019-04-21T09:41:28.352Z,3.07
2019-04-21T09:42:41.533Z,2.90
2019-04-21T09:43:46.218Z,3.10
2019-04-21T09:44:48.374Z,3.00
2019-04-21T09:45:54.136Z,3.17
2019-04-21T09:47:01.967Z,3.00
2019-04-21T09:48:11.777Z,2.83
2019-04-21T09:49:16.484Z,3.27
2019-04-21T09:50:19.846Z,2.70
2019-04-21T09:51:25.862Z,2.93
2019-04-21T09:52:39.729Z,2.73
2019-04-21T09:53:41.350Z,3.30
2019-04-21T09:54:53.062Z,3.10
2019-04-21T09:55:56.722Z,2.83
2019-04-21T09:57:03.278Z,2.70
2019-04-21T09:58:15.191Z,2.63
2019-04-21T09:59:18.738Z,2.80
2019-04-21T10:00:22.458Z,3.07
2019-04-21T10:01:30.916Z,2.60
2019-04-21T10:02:39.939Z,2.90
2019-04-21T10:03:46.155Z,2.90
2019-04-21T10:04:46.088Z,3.70
2019-04-21T10:05:52.045Z,2.67
2019-04-21T10:06:56.928Z,2.63
2019-04-21T10:08:01.856Z,2.70
2019-04-21T10:09:11.565Z,2.73
2019-04-21T10:10:17.136Z,2.70
2019-04-21T10:11:22.610Z,2.57
2019-04-21T10:12:28.721Z,2.53
2019-04-21T10:13:33.973Z,2.50
2019-04-21T10:14:39.014Z,2.87
2019-04-21T10:15:46.282Z,2.43
2019-04-21T10:17:00.318Z,2.47
2019-04-21T10:18:13.089Z,2.60
2019-04-21T10:19:17.951Z,2.53
2019-04-21T10:20:24.393Z,2.37
2019-04-21T10:21:29.513Z,2.37
2019-04-21T10:22:35.101Z,1.97
2019-04-21T10:23:41.572Z,2.40
2019-04-21T10:24:46.809Z,1.97
2019-04-21T10:25:52.546Z,1.80
2019-04-21T10:26:57.468Z,2.30
2019-04-21T10:28:03.283Z,2.40
2019-04-21T10:29:16.329Z,2.90
2019-04-21T10:30:16.229Z,2.33
2019-04-21T10:31:22.681Z,2.20
2019-04-21T10:32:28.213Z,2.03
2019-04-21T10:33:34.500Z,2.20
2019-04-21T10:34:39.498Z,2.27
2019-04-21T10:35:44.329Z,2.10
2019-04-21T10:36:49.387Z,2.03
2019-04-21T10:38:08.011Z,2.67
2019-04-21T10:39:02.230Z,1.97
2019-04-21T10:40:08.015Z,2.13
2019-04-21T10:41:13.004Z,2.57
2019-04-21T10:42:17.881Z,2.80
2019-04-21T10:43:24.348Z,1.90
2019-04-21T10:44:29.498Z,1.80
2019-04-21T10:45:34.903Z,2.50
2019-04-21T10:46:40.608Z,2.27
2019-04-21T10:47:47.086Z,2.20
2019-04-21T10:48:54.930Z,1.73
2019-04-21T10:50:00.489Z,2.03
2019-04-21T10:51:05.480Z,2.90
2019-04-21T10:52:17.338Z,2.23
2019-04-21T10:53:25.244Z,2.33
2019-04-21T10:54:49.133Z,2.23
2019-04-21T10:55:54.387Z,2.10
2019-04-21T10:56:45.574Z,2.67
2019-04-21T10:58:08.704Z,3.80
2019-04-21T10:59:14.344Z,4.17
2019-04-21T11:00:21.735Z,2.03
2019-04-21T11:01:31.495Z,2.17
2019-04-21T11:02:46.480Z,2.20
2019-04-21T11:03:55.911Z,2.30
2019-04-21T11:05:00.805Z,2.23
2019-04-21T11:06:06.584Z,2.57
2019-04-21T11:07:59.379Z,3.13
2019-04-21T11:08:55.379Z,2.20
2019-04-21T11:09:58.547Z,2.20
2019-04-21T11:11:03.830Z,2.00
2019-04-21T11:12:10.152Z,2.40
2019-04-21T11:13:15.100Z,2.37
2019-04-21T11:14:21.021Z,2.63
2019-04-21T11:15:27.425Z,2.47
2019-04-21T11:16:33.205Z,2.30
2019-04-21T11:17:40.622Z,2.33
2019-04-21T11:18:44.565Z,2.17
2019-04-21T11:19:50.610Z,2.20
2019-04-21T11:20:55.669Z,3.93
2019-04-21T11:22:01.056Z,3.07
2019-04-21T11:23:06.061Z,2.40
2019-04-21T11:24:12.130Z,2.97
2019-04-21T11:25:17.842Z,2.60
2019-04-21T11:26:24.165Z,1.93
2019-04-21T11:27:29.325Z,2.73
2019-04-21T11:28:34.661Z,2.00
2019-04-21T11:29:39.662Z,2.57
2019-04-21T11:30:44.590Z,2.20
2019-04-21T11:31:49.615Z,2.27
2019-04-21T11:32:55.262Z,2.17
2019-04-21T11:34:00.917Z,2.43
2019-04-21T11:35:07.346Z,2.20
2019-04-21T11:36:13.384Z,2.00
2019-04-21T11:37:20.082Z,2.57
2019-04-21T11:38:58.123Z,2.23
2019-04-21T11:39:59.370Z,2.40
2019-04-21T11:40:58.106Z,2.50
2019-04-21T11:42:08.349Z,2.10
2019-04-21T11:43:13.737Z,2.00
2019-04-21T11:44:21.525Z,2.20
2019-04-21T11:45:34.522Z,2.40
2019-04-21T11:46:40.368Z,2.57
2019-04-21T11:48:03.962Z,2.33
2019-04-21T11:49:10.423Z,2.07
2019-04-21T11:50:15.419Z,2.20
2019-04-21T11:51:20.668Z,2.23
2019-04-21T11:52:26.850Z,2.13
2019-04-21T11:53:32.857Z,2.07
2019-04-21T11:54:38.052Z,2.10
2019-04-21T11:55:46.689Z,2.10
2019-04-21T11:56:50.649Z,1.90
2019-04-21T11:57:56.524Z,2.30
2019-04-21T11:59:01.969Z,2.50
2019-04-21T12:00:07.578Z,2.10
2019-04-21T12:01:13.895Z,2.20
2019-04-21T12:02:19.422Z,1.93
2019-04-21T12:03:24.716Z,2.03
2019-04-21T12:04:29.919Z,2.00
2019-04-21T12:05:35.226Z,1.70
2019-04-21T12:06:44.480Z,2.20
2019-04-21T12:07:47.259Z,2.30
2019-04-21T12:08:54.942Z,2.20
2019-04-21T12:09:59.676Z,2.00
2019-04-21T12:11:05.325Z,2.20
2019-04-21T12:12:11.513Z,2.33
2019-04-21T12:13:16.757Z,2.40
2019-04-21T12:14:23.816Z,2.40
2019-04-21T12:15:29.198Z,2.23
2019-04-21T12:16:35.088Z,2.00
2019-04-21T12:17:41.699Z,2.13
2019-04-21T12:18:47.212Z,2.50
2019-04-21T12:19:52.699Z,2.70
2019-04-21T12:20:57.999Z,2.50
2019-04-21T12:22:10.984Z,1.90
2019-04-21T12:23:09.672Z,2.20
2019-04-21T12:24:15.257Z,2.10
2019-04-21T12:25:21.029Z,2.00
2019-04-21T12:26:26.445Z,2.10
2019-04-21T12:27:32.003Z,2.23
2019-04-21T12:28:37.620Z,2.20
2019-04-21T12:29:43.949Z,2.20
2019-04-21T12:30:53.645Z,2.20
2019-04-21T12:32:36.327Z,2.20
2019-04-21T12:34:09.915Z,2.20
2019-04-21T12:35:15.809Z,2.10
2019-04-21T12:36:21.980Z,2.10
2019-04-21T12:37:28.838Z,2.37
2019-04-21T12:38:42.682Z,2.30
2019-04-21T12:39:41.250Z,2.40
2019-04-21T12:40:46.579Z,2.07
2019-04-21T12:41:51.664Z,2.40
2019-04-21T12:42:56.846Z,2.10
2019-04-21T12:44:02.527Z,2.10
2019-04-21T12:45:09.740Z,2.30
2019-04-21T12:46:15.940Z,2.80
2019-04-21T12:47:21.731Z,2.00
2019-04-21T12:48:28.167Z,2.50
2019-04-21T12:49:33.869Z,2.10
2019-04-21T12:50:39.589Z,2.13
2019-04-21T12:51:46.128Z,3.10
2019-04-21T12:52:51.632Z,2.20
2019-04-21T12:53:57.438Z,2.17
2019-04-21T12:55:03.728Z,2.17
2019-04-21T12:56:09.773Z,2.40
2019-04-21T12:57:14.770Z,2.30
2019-04-21T12:58:21.361Z,2.43
2019-04-21T12:59:29.217Z,2.23
2019-04-21T13:00:33.565Z,2.60
2019-04-21T13:01:39.012Z,2.50
2019-04-21T13:02:45.496Z,2.63
2019-04-21T13:03:52.031Z,2.30
2019-04-21T13:04:57.791Z,2.30
2019-04-21T13:06:03.519Z,2.40
2019-04-21T13:07:09.838Z,2.20
2019-04-21T13:08:15.459Z,2.37
2019-04-21T13:09:22.130Z,2.10
2019-04-21T13:10:28.440Z,2.30
2019-04-21T13:11:34.973Z,2.30
2019-04-21T13:12:41.657Z,2.30
2019-04-21T13:13:48.093Z,2.57
2019-04-21T13:14:55.662Z,2.40
2019-04-21T13:16:01.324Z,2.27
2019-04-21T13:17:07.638Z,2.50
2019-04-21T13:18:14.234Z,2.50
2019-04-21T13:19:20.973Z,2.40
2019-04-21T13:20:27.483Z,2.03
2019-04-21T13:21:33.862Z,2.00
2019-04-21T13:22:39.787Z,2.13
2019-04-21T13:23:45.172Z,2.00
2019-04-21T13:24:51.637Z,2.30
2019-04-21T13:25:56.889Z,2.37
2019-04-21T13:27:03.625Z,2.72
2019-04-21T13:28:10.347Z,2.22
2019-04-21T13:29:16.521Z,2.25
2019-04-21T13:30:22.371Z,1.92
2019-04-21T13:31:27.519Z,2.37
2019-04-21T13:32:33.199Z,2.50
2019-04-21T13:33:38.260Z,2.10
2019-04-21T13:34:44.245Z,2.00
2019-04-21T13:35:50.795Z,2.10
2019-04-21T13:36:57.358Z,1.95
2019-04-21T13:38:02.956Z,1.95
2019-04-21T13:41:12.223Z,2.00
2019-04-21T13:42:10.993Z,2.60
2019-04-21T13:43:10.148Z,2.40
2019-04-21T13:44:16.353Z,2.60
2019-04-21T13:45:23.841Z,3.40
2019-04-21T13:46:28.957Z,2.50
2019-04-21T13:47:34.657Z,2.72
2019-04-21T13:48:40.333Z,2.50
2019-04-21T13:49:45.502Z,2.58
2019-04-21T13:50:51.223Z,2.80
2019-04-21T13:51:56.293Z,3.25
2019-04-21T13:53:02.721Z,3.20
2019-04-21T13:54:09.531Z,3.42
2019-04-21T13:55:15.833Z,3.27
2019-04-21T13:56:22.581Z,3.22
2019-04-21T13:57:28.476Z,3.70
2019-04-21T13:58:34.582Z,3.45
2019-04-21T13:59:40.363Z,3.37
2019-04-21T14:00:45.743Z,3.80
2019-04-21T14:01:51.992Z,3.98
2019-04-21T14:02:58.645Z,3.58
2019-04-21T14:04:05.183Z,3.60
2019-04-21T14:05:13.456Z,3.47
2019-04-21T14:06:18.343Z,3.92
2019-04-21T14:07:23.990Z,4.00
2019-04-21T14:08:29.405Z,4.03
2019-04-21T14:09:43.750Z,3.80
2019-04-21T14:10:41.751Z,3.75
2019-04-21T14:11:47.434Z,3.92
2019-04-21T14:12:54.116Z,4.05
2019-04-21T14:14:00.512Z,4.28
2019-04-21T14:15:06.320Z,4.40
2019-04-21T14:16:11.830Z,4.50
2019-04-21T14:17:17.458Z,4.22
2019-04-21T14:18:22.713Z,4.00
2019-04-21T14:19:27.931Z,3.90
2019-04-21T14:20:33.339Z,4.30
2019-04-21T14:21:39.193Z,7.97
2019-04-21T14:22:44.327Z,4.30
2019-04-21T14:23:52.237Z,4.10
2019-04-21T14:24:56.279Z,4.05
2019-04-21T14:26:03.890Z,3.98
2019-04-21T14:27:10.092Z,3.92
2019-04-21T14:28:15.656Z,3.83
2019-04-21T14:29:21.754Z,3.75
2019-04-21T14:30:28.403Z,3.85
2019-04-21T14:31:34.677Z,3.60
2019-04-21T14:32:40.200Z,4.10
2019-04-21T14:33:45.915Z,3.60
2019-04-21T14:34:53.863Z,4.00
2019-04-21T14:35:58.886Z,4.08
2019-04-21T14:37:04.525Z,3.77
2019-04-21T14:38:10.768Z,3.47
2019-04-21T14:39:16.661Z,3.63
2019-04-21T14:40:25.810Z,3.95
2019-04-21T14:41:30.528Z,3.40
2019-04-21T14:42:36.054Z,3.60
2019-04-21T14:43:41.772Z,3.30
2019-04-21T14:44:47.254Z,3.22
2019-04-21T14:46:11.158Z,3.47
2019-04-21T14:47:25.122Z,2.80
2019-04-21T14:48:48.759Z,3.00
2019-04-21T14:50:22.370Z,2.58
2019-04-21T14:51:50.240Z,2.72
2019-04-21T14:53:11.834Z,2.97
2019-04-21T14:54:38.932Z,3.20
2019-04-21T14:55:46.544Z,2.83
2019-04-21T14:56:51.612Z,2.97
2019-04-21T14:57:57.107Z,2.50
2019-04-21T14:59:04.117Z,2.77
2019-04-21T15:00:13.257Z,2.50
2019-04-21T15:01:19.763Z,2.50
2019-04-21T15:02:25.561Z,2.77
2019-04-21T15:03:31.947Z,2.93
2019-04-21T15:04:37.676Z,3.00
2019-04-21T15:05:42.989Z,2.77
2019-04-21T15:06:48.011Z,2.70
2019-04-21T15:07:53.206Z,2.90
2019-04-21T15:08:58.155Z,2.80
2019-04-21T15:10:11.572Z,2.67
2019-04-21T15:11:10.090Z,2.70
2019-04-21T15:12:16.197Z,2.70
2019-04-21T15:13:21.819Z,3.03
2019-04-21T15:14:27.090Z,3.20
2019-04-21T15:15:32.419Z,3.43
2019-04-21T15:16:38.674Z,3.03
2019-04-21T15:17:44.187Z,3.33
2019-04-21T15:18:50.487Z,3.20
2019-04-21T15:19:59.681Z,3.27
2019-04-21T15:21:03.646Z,3.00
2019-04-21T15:22:10.118Z,2.83
2019-04-21T15:23:15.269Z,2.90
2019-04-21T15:24:20.489Z,3.03
2019-04-21T15:25:26.059Z,3.00
2019-04-21T15:26:32.386Z,2.90
2019-04-21T15:27:37.407Z,3.53
2019-04-21T15:28:42.560Z,3.30
2019-04-21T15:29:48.518Z,2.90
2019-04-21T15:30:54.427Z,2.83
2019-04-21T15:32:00.750Z,2.90
2019-04-21T15:33:06.461Z,2.80
2019-04-21T15:34:13.012Z,3.07
2019-04-21T15:35:19.546Z,3.03
2019-04-21T15:36:25.039Z,2.67
2019-04-21T15:37:31.569Z,3.20
2019-04-21T15:38:38.036Z,2.97
2019-04-21T15:39:44.690Z,2.70
2019-04-21T15:40:55.479Z,3.10
2019-04-21T15:41:58.686Z,2.10
2019-04-21T15:43:04.384Z,2.37
2019-04-21T15:44:09.921Z,2.50
2019-04-21T15:45:16.645Z,2.40
2019-04-21T15:46:22.612Z,2.60
2019-04-21T15:47:28.262Z,2.33
2019-04-21T15:48:34.842Z,2.33
2019-04-21T15:50:02.920Z,2.40
2019-04-21T15:51:05.598Z,2.83
2019-04-21T15:52:09.787Z,2.63
2019-04-21T15:53:15.932Z,2.80
2019-04-21T15:54:22.537Z,2.63
2019-04-21T15:55:46.524Z,2.70
2019-04-21T15:56:58.609Z,3.30
2019-04-21T15:58:12.756Z,2.60
2019-04-21T15:59:46.572Z,3.10
2019-04-21T16:01:00.616Z,2.90
2019-04-21T16:02:37.211Z,3.30
2019-04-21T16:03:42.877Z,3.10
2019-04-21T16:04:48.690Z,3.50
2019-04-21T16:05:53.813Z,3.67
2019-04-21T16:06:59.479Z,3.67